createdAt,value
2022-12-04T00:01:26.160Z,102197.22
2022-12-04T00:03:57.334Z,102192.56
2022-12-04T00:06:25.933Z,102186.16
2022-12-04T00:08:55.302Z,102193.13
2022-12-04T00:11:26.119Z,102193.03
2022-12-04T00:14:04.645Z,102193.03
2022-12-04T00:16:34.591Z,102197.28
2022-12-04T00:19:04.089Z,102204.81
2022-12-04T00:21:32.413Z,102200.13
2022-12-04T00:24:00.515Z,102197.31
2022-12-04T00:26:31.150Z,102203.25
2022-12-04T00:28:59.135Z,102206.63
2022-12-04T00:31:28.777Z,102204.09
2022-12-04T00:33:57.087Z,102209.53
2022-12-04T00:36:28.957Z,102209.63
2022-12-04T00:38:57.451Z,102198.16
2022-12-04T00:41:27.671Z,102202.66
2022-12-04T00:43:55.703Z,102201.97
2022-12-04T00:46:24.275Z,102194.94
2022-12-04T00:48:53.396Z,102191.28
2022-12-04T00:51:23.842Z,102183.22
2022-12-04T00:53:53.938Z,102189.25
2022-12-04T00:56:24.725Z,102194.13
2022-12-04T00:58:54.199Z,102187.16
2022-12-04T01:01:23.239Z,102195.16
2022-12-04T01:03:51.692Z,102198.75
2022-12-04T01:06:21.945Z,102195.16
2022-12-04T01:08:50.639Z,102192.63
2022-12-04T01:11:22.587Z,102196.97
2022-12-04T01:13:50.842Z,102184.06
2022-12-04T01:16:24.681Z,102175.41
2022-12-04T01:18:53.295Z,102188.66
2022-12-04T01:21:21.375Z,102186.78
2022-12-04T01:23:50.038Z,102178.88
2022-12-04T01:26:20.671Z,102194.84
2022-12-04T01:28:48.719Z,102189.50
2022-12-04T01:31:19.879Z,102194.75
2022-12-04T01:33:48.531Z,102186.88
2022-12-04T01:36:18.755Z,102199.09
2022-12-04T01:38:46.956Z,102192.97
2022-12-04T01:41:19.912Z,102178.97
2022-12-04T01:44:14.854Z,102180.66
2022-12-04T01:46:44.323Z,102185.94
2022-12-04T01:49:15.778Z,102192.03
2022-12-04T01:51:47.518Z,102179.81
2022-12-04T01:54:20.032Z,102183.22
2022-12-04T01:56:50.770Z,102178.03
2022-12-04T01:59:23.662Z,102173.72
2022-12-04T02:01:57.511Z,102179.81
2022-12-04T02:04:25.594Z,102178.97
2022-12-04T02:06:53.514Z,102178.81
2022-12-04T02:09:26.702Z,102168.94
2022-12-04T02:12:02.805Z,102181.25
2022-12-04T02:14:42.911Z,102187.47
2022-12-04T02:17:21.343Z,102183.22
2022-12-04T02:20:06.909Z,102173.72
2022-12-04T02:23:05.927Z,102183.22
2022-12-04T02:25:42.025Z,102177.28
2022-12-04T02:28:18.619Z,102171.09
2022-12-04T02:30:48.290Z,102179.91
2022-12-04T02:33:21.605Z,102180.00
2022-12-04T02:35:54.860Z,102171.47
2022-12-04T02:38:28.245Z,102172.31
2022-12-04T02:41:02.155Z,102178.22
2022-12-04T02:43:38.176Z,102177.28
2022-12-04T02:46:12.289Z,102175.59
2022-12-04T02:48:42.699Z,102179.16
2022-12-04T02:51:15.125Z,102177.44
2022-12-04T02:53:48.626Z,102168.84
2022-12-04T02:56:21.157Z,102172.41
2022-12-04T02:58:55.939Z,102181.22
2022-12-04T03:01:35.961Z,102174.09
2022-12-04T03:04:09.349Z,102169.75
2022-12-04T03:06:40.688Z,102175.75
2022-12-04T03:09:13.754Z,102179.34
2022-12-04T03:11:51.603Z,102182.91
2022-12-04T03:14:26.096Z,102179.34
2022-12-04T03:17:02.624Z,102176.44
2022-12-04T03:19:37.521Z,102180.84
2022-12-04T03:22:11.878Z,102180.09
2022-12-04T03:24:44.866Z,102186.09
2022-12-04T03:27:17.139Z,102185.16
2022-12-04T03:29:54.118Z,102186.03
2022-12-04T03:32:27.896Z,102181.53
2022-12-04T03:35:02.010Z,102168.44
2022-12-04T03:37:40.147Z,102179.75
2022-12-04T03:40:22.774Z,102176.16
2022-12-04T03:42:57.800Z,102178.88
2022-12-04T03:45:30.175Z,102184.06
2022-12-04T03:48:02.525Z,102184.06
2022-12-04T03:50:38.090Z,102181.44
2022-12-04T03:53:11.966Z,102197.13
2022-12-04T03:55:44.683Z,102195.34
2022-12-04T03:58:17.616Z,102187.38
2022-12-04T04:00:49.169Z,102185.59
2022-12-04T04:03:21.983Z,102191.50
2022-12-04T04:05:55.258Z,102186.31
2022-12-04T04:08:30.023Z,102187.84
2022-12-04T04:11:03.522Z,102188.59
2022-12-04T04:13:55.696Z,102182.56
2022-12-04T04:16:46.579Z,102200.16
2022-12-04T04:19:35.068Z,102190.56
2022-12-04T04:22:34.953Z,102205.50
2022-12-04T04:25:07.532Z,102190.00
2022-12-04T04:27:35.498Z,102190.00
2022-12-04T04:30:03.667Z,102186.69
2022-12-04T04:32:40.456Z,102183.22
2022-12-04T04:35:19.579Z,102194.59
2022-12-04T04:37:57.716Z,102192.72
2022-12-04T04:40:31.510Z,102181.53
2022-12-04T04:43:04.006Z,102190.34
2022-12-04T04:45:37.253Z,102180.50
2022-12-04T04:48:11.855Z,102169.03
2022-12-04T04:50:40.361Z,102174.22
2022-12-04T04:53:13.816Z,102174.38
2022-12-04T04:55:43.284Z,102166.41
2022-12-04T04:58:15.981Z,102168.28
2022-12-04T05:00:50.234Z,102166.66
2022-12-04T05:03:20.062Z,102171.84
2022-12-04T05:05:48.031Z,102157.84
2022-12-04T05:08:16.059Z,102161.41
2022-12-04T05:10:44.090Z,102158.00
2022-12-04T05:13:13.460Z,102155.28
2022-12-04T05:15:41.555Z,102150.97
2022-12-04T05:18:09.964Z,102160.38
2022-12-04T05:20:40.857Z,102157.84
2022-12-04T05:23:08.863Z,102166.19
2022-12-04T05:25:36.863Z,102156.63
2022-12-04T05:28:04.787Z,102154.00
2022-12-04T05:30:32.673Z,102140.72
2022-12-04T05:33:00.709Z,102166.19
2022-12-04T05:35:28.651Z,102162.75
2022-12-04T05:37:58.028Z,102163.56
2022-12-04T05:40:26.608Z,102162.44
2022-12-04T05:42:55.702Z,102165.94
2022-12-04T05:45:24.484Z,102165.00
2022-12-04T05:47:52.632Z,102169.41
2022-12-04T05:50:20.998Z,102181.63
2022-12-04T05:52:48.978Z,102176.38
2022-12-04T05:55:20.169Z,102180.63
2022-12-04T05:57:48.125Z,102171.69
2022-12-04T06:00:21.280Z,102167.28
2022-12-04T06:02:49.244Z,102165.66
2022-12-04T06:05:17.424Z,102170.94
2022-12-04T06:07:45.526Z,102169.22
2022-12-04T06:10:16.349Z,102168.28
2022-12-04T06:12:46.249Z,102165.84
2022-12-04T06:15:14.382Z,102177.97
2022-12-04T06:17:42.492Z,102180.31
2022-12-04T06:20:11.920Z,102182.69
2022-12-04T06:22:40.202Z,102185.97
2022-12-04T06:25:09.349Z,102179.03
2022-12-04T06:27:37.548Z,102181.66
2022-12-04T06:30:08.282Z,102180.81
2022-12-04T06:32:36.204Z,102191.34
2022-12-04T06:35:04.322Z,102188.78
2022-12-04T06:37:32.298Z,102190.56
2022-12-04T06:40:00.522Z,102185.41
2022-12-04T06:42:29.614Z,102193.47
2022-12-04T06:44:57.793Z,102179.59
2022-12-04T06:47:27.175Z,102178.66
2022-12-04T06:49:55.320Z,102193.59
2022-12-04T06:52:23.341Z,102190.19
2022-12-04T06:54:51.297Z,102198.19
2022-12-04T06:57:19.273Z,102200.72
2022-12-04T06:59:48.458Z,102193.69
2022-12-04T07:02:16.819Z,102214.66
2022-12-04T07:04:46.362Z,102206.63
2022-12-04T07:07:14.329Z,102203.91
2022-12-04T07:09:42.260Z,102206.56
2022-12-04T07:12:11.323Z,102210.97
2022-12-04T07:14:39.662Z,102217.28
2022-12-04T07:17:07.679Z,102218.22
2022-12-04T07:19:36.129Z,102207.69
2022-12-04T07:22:05.432Z,102221.88
2022-12-04T07:24:33.356Z,102209.66
2022-12-04T07:27:01.896Z,102202.69
2022-12-04T07:29:29.894Z,102215.09
2022-12-04T07:31:58.019Z,102208.88
2022-12-04T07:34:26.004Z,102208.81
2022-12-04T07:36:53.922Z,102203.63
2022-12-04T07:39:23.630Z,102215.94
2022-12-04T07:41:52.579Z,102220.28
2022-12-04T07:44:20.912Z,102203.72
2022-12-04T07:46:48.820Z,102213.47
2022-12-04T07:49:17.218Z,102217.91
2022-12-04T07:51:45.711Z,102210.00
2022-12-04T07:54:13.652Z,102211.69
2022-12-04T07:56:43.298Z,102230.13
2022-12-04T07:59:14.395Z,102221.38
2022-12-04T08:01:42.618Z,102218.75
2022-12-04T08:04:12.378Z,102211.53
2022-12-04T08:06:41.383Z,102223.75
2022-12-04T08:09:10.522Z,102215.75
2022-12-04T08:11:38.820Z,102217.63
2022-12-04T08:14:10.008Z,102225.53
2022-12-04T08:16:38.105Z,102223.84
2022-12-04T08:19:06.192Z,102231.72
2022-12-04T08:21:34.391Z,102235.03
2022-12-04T08:24:02.671Z,102238.69
2022-12-04T08:26:33.672Z,102214.25
2022-12-04T08:29:02.859Z,102237.84
2022-12-04T08:31:34.461Z,102235.97
2022-12-04T08:34:05.399Z,102226.28
2022-12-04T08:36:34.477Z,102238.34
2022-12-04T08:39:02.772Z,102240.03
2022-12-04T08:41:31.352Z,102229.69
2022-12-04T08:44:00.109Z,102239.38
2022-12-04T08:46:29.611Z,102242.16
2022-12-04T08:48:59.672Z,102233.44
2022-12-04T08:51:29.993Z,102240.47
2022-12-04T08:54:01.310Z,102238.09
2022-12-04T08:56:30.611Z,102253.63
2022-12-04T08:58:59.502Z,102248.38
2022-12-04T09:01:29.185Z,102254.75
2022-12-04T09:03:59.205Z,102252.09
2022-12-04T09:06:27.454Z,102242.53
2022-12-04T09:09:10.201Z,102240.84
2022-12-04T09:11:38.162Z,102250.41
2022-12-04T09:14:07.593Z,102235.00
2022-12-04T09:16:35.707Z,102234.06
2022-12-04T09:19:05.623Z,102237.47
2022-12-04T09:21:33.602Z,102245.28
2022-12-04T09:24:02.136Z,102249.59
2022-12-04T09:26:32.345Z,102246.84
2022-12-04T09:29:01.938Z,102234.44
2022-12-04T09:31:30.625Z,102242.09
2022-12-04T09:34:00.132Z,102225.19
2022-12-04T09:36:29.861Z,102228.28
2022-12-04T09:38:58.964Z,102232.63
2022-12-04T09:41:50.425Z,102229.22
2022-12-04T09:44:23.990Z,102231.94
2022-12-04T09:46:55.349Z,102226.75
2022-12-04T09:49:27.502Z,102231.28
2022-12-04T09:52:01.612Z,102218.97
2022-12-04T09:54:35.307Z,102217.09
2022-12-04T09:57:11.999Z,102222.16
2022-12-04T09:59:39.976Z,102222.44
2022-12-04T10:02:27.085Z,102212.75
2022-12-04T10:04:55.620Z,102218.22
2022-12-04T10:07:31.073Z,102211.34
2022-12-04T10:10:04.017Z,102210.31
2022-12-04T10:12:42.210Z,102214.34
2022-12-04T10:15:24.475Z,102211.56
2022-12-04T10:18:09.696Z,102216.16
2022-12-04T10:21:02.542Z,102212.97
2022-12-04T10:23:44.602Z,102215.69
2022-12-04T10:26:16.714Z,102205.16
2022-12-04T10:28:55.009Z,102208.63
2022-12-04T10:31:24.502Z,102209.56
2022-12-04T10:34:03.869Z,102214.81
2022-12-04T10:36:36.014Z,102213.91
2022-12-04T10:39:14.307Z,102215.75
2022-12-04T10:42:07.667Z,102206.25
2022-12-04T10:44:35.820Z,102200.91
2022-12-04T10:47:06.254Z,102205.16
2022-12-04T10:49:36.799Z,102211.25
2022-12-04T10:52:05.358Z,102209.28
2022-12-04T10:54:39.853Z,102206.28
2022-12-04T10:57:09.415Z,102212.31
2022-12-04T10:59:40.921Z,102214.09
2022-12-04T11:02:21.854Z,102207.88
2022-12-04T11:04:57.387Z,102203.56
2022-12-04T11:07:28.182Z,102206.88
2022-12-04T11:09:59.575Z,102214.56
2022-12-04T11:12:35.520Z,102205.00
2022-12-04T11:15:14.662Z,102202.16
2022-12-04T11:17:42.705Z,102207.50
2022-12-04T11:20:20.960Z,102207.41
2022-12-04T11:22:53.189Z,102213.84
2022-12-04T11:25:30.686Z,102208.75
2022-12-04T11:28:02.387Z,102210.63
2022-12-04T11:30:33.915Z,102216.06
2022-12-04T11:33:04.193Z,102206.56
2022-12-04T11:35:33.804Z,102215.22
2022-12-04T11:38:10.477Z,102201.09
2022-12-04T11:40:46.933Z,102215.22
2022-12-04T11:43:28.532Z,102214.44
2022-12-04T11:45:58.578Z,102207.59
2022-12-04T11:48:27.764Z,102200.72
2022-12-04T11:51:06.435Z,102205.91
2022-12-04T11:53:44.734Z,102181.38
2022-12-04T11:56:24.494Z,102201.56
2022-12-04T11:59:05.302Z,102200.16
2022-12-04T12:01:44.087Z,102205.22
2022-12-04T12:04:38.472Z,102208.88
2022-12-04T12:07:21.263Z,102210.59
2022-12-04T12:09:57.385Z,102203.44
2022-12-04T12:12:34.551Z,102196.41
2022-12-04T12:15:10.696Z,102199.78
2022-12-04T12:17:46.923Z,102204.22
2022-12-04T12:20:24.022Z,102200.06
2022-12-04T12:23:18.044Z,102202.88
2022-12-04T12:25:57.460Z,102208.97
2022-12-04T12:28:45.634Z,102202.03
2022-12-04T12:31:38.800Z,102206.25
2022-12-04T12:34:11.614Z,102205.22
2022-12-04T12:36:45.200Z,102210.13
2022-12-04T12:39:19.167Z,102208.16
2022-12-04T12:41:52.613Z,102208.91
2022-12-04T12:44:28.784Z,102208.25
2022-12-04T12:47:02.062Z,102208.25
2022-12-04T12:49:35.123Z,102222.16
2022-12-04T12:52:08.940Z,102215.22
2022-12-04T12:54:44.008Z,102220.66
2022-12-04T12:57:17.429Z,102222.91
2022-12-04T12:59:50.316Z,102218.47
2022-12-04T13:02:24.840Z,102208.88
2022-12-04T13:04:56.549Z,102209.81
2022-12-04T13:07:30.591Z,102206.44
2022-12-04T13:10:06.304Z,102218.00
2022-12-04T13:12:44.825Z,102213.47
2022-12-04T13:15:18.533Z,102212.47
2022-12-04T13:17:49.183Z,102207.50
2022-12-04T13:20:23.176Z,102199.94
2022-12-04T13:23:04.963Z,102210.47
2022-12-04T13:25:49.513Z,102220.06
2022-12-04T13:28:31.834Z,102215.72
2022-12-04T13:31:33.838Z,102214.88
2022-12-04T13:34:30.635Z,102208.84
2022-12-04T13:37:07.206Z,102209.88
2022-12-04T13:40:05.989Z,102203.50
2022-12-04T13:42:35.544Z,102215.56
2022-12-04T13:45:11.886Z,102212.06
2022-12-04T13:47:41.353Z,102205.13
2022-12-04T13:50:26.510Z,102203.25
2022-12-04T13:52:54.927Z,102212.16
2022-12-04T13:55:32.799Z,102212.25
2022-12-04T13:58:03.342Z,102220.31
2022-12-04T14:00:33.950Z,102219.56
2022-12-04T14:03:06.363Z,102211.78
2022-12-04T14:05:41.306Z,102207.91
2022-12-04T14:08:24.682Z,102215.66
2022-12-04T14:11:05.148Z,102216.41
2022-12-04T14:13:44.625Z,102220.72
2022-12-04T14:16:22.643Z,102219.78
2022-12-04T14:18:54.802Z,102219.88
2022-12-04T14:21:23.407Z,102222.53
2022-12-04T14:23:53.774Z,102220.91
2022-12-04T14:26:37.262Z,102235.84
2022-12-04T14:29:34.253Z,102228.88
2022-12-04T14:32:09.862Z,102224.47
2022-12-04T14:34:40.018Z,102230.66
2022-12-04T14:37:08.380Z,102229.72
2022-12-04T14:39:41.788Z,102228.72
2022-12-04T14:42:16.539Z,102222.44
2022-12-04T14:44:47.139Z,102223.44
2022-12-04T14:47:25.422Z,102215.66
2022-12-04T14:50:10.428Z,102205.78
2022-12-04T14:52:44.156Z,102213.69
2022-12-04T14:55:23.723Z,102211.22
2022-12-04T14:57:56.737Z,102207.84
2022-12-04T15:00:26.276Z,102209.28
2022-12-04T15:02:58.236Z,102213.56
2022-12-04T15:05:30.400Z,102216.19
2022-12-04T15:08:02.495Z,102216.19
2022-12-04T15:10:50.430Z,102225.78
2022-12-04T15:13:26.971Z,102223.06
2022-12-04T15:15:55.490Z,102228.63
2022-12-04T15:18:23.948Z,102232.00
2022-12-04T15:21:00.281Z,102228.34
2022-12-04T15:23:30.926Z,102235.28
2022-12-04T15:26:02.027Z,102244.13
2022-12-04T15:28:35.289Z,102245.06
2022-12-04T15:31:07.162Z,102253.91
2022-12-04T15:33:39.588Z,102242.63
2022-12-04T15:36:13.905Z,102248.91
2022-12-04T15:38:42.430Z,102250.78
2022-12-04T15:41:30.718Z,102252.56
2022-12-04T15:43:59.110Z,102252.81
2022-12-04T15:46:32.777Z,102242.22
2022-12-04T15:49:19.062Z,102242.13
2022-12-04T15:51:49.283Z,102248.16
2022-12-04T15:54:23.187Z,102240.94
2022-12-04T15:57:01.994Z,102247.91
2022-12-04T15:59:33.976Z,102237.16
2022-12-04T16:02:07.488Z,102242.44
2022-12-04T16:04:41.063Z,102249.22
2022-12-04T16:07:22.060Z,102245.56
2022-12-04T16:10:01.058Z,102249.22
2022-12-04T16:12:32.138Z,102252.69
2022-12-04T16:15:00.132Z,102252.53
2022-12-04T16:17:31.943Z,102249.81
2022-12-04T16:20:00.335Z,102253.94
2022-12-04T16:22:31.540Z,102252.34
2022-12-04T16:24:59.913Z,102246.31
2022-12-04T16:27:28.630Z,102248.97
2022-12-04T16:29:56.667Z,102245.47
2022-12-04T16:32:29.123Z,102247.34
2022-12-04T16:34:57.596Z,102244.03
2022-12-04T16:37:27.669Z,102249.22
2022-12-04T16:39:58.283Z,102254.41
2022-12-04T16:42:28.537Z,102242.09
2022-12-04T16:44:56.961Z,102233.69
2022-12-04T16:47:25.246Z,102244.59
2022-12-04T16:49:53.702Z,102244.09
2022-12-04T16:52:22.528Z,102238.09
2022-12-04T16:54:52.004Z,102240.53
2022-12-04T16:57:21.366Z,102235.34
2022-12-04T16:59:50.395Z,102237.31
2022-12-04T17:02:23.837Z,102237.41
2022-12-04T17:04:57.251Z,102233.94
2022-12-04T17:07:26.097Z,102243.69
2022-12-04T17:09:54.166Z,102235.22
2022-12-04T17:12:23.660Z,102238.78
2022-12-04T17:14:55.875Z,102227.22
2022-12-04T17:17:25.479Z,102239.38
2022-12-04T17:19:53.828Z,102234.78
2022-12-04T17:22:26.335Z,102240.13
2022-12-04T17:24:56.251Z,102231.38
2022-12-04T17:27:26.161Z,102239.28
2022-12-04T17:29:54.648Z,102231.38
2022-12-04T17:32:23.187Z,102223.50
2022-12-04T17:35:00.082Z,102234.78
2022-12-04T17:37:28.452Z,102231.31
2022-12-04T17:40:01.236Z,102234.69
2022-12-04T17:42:30.598Z,102232.16
2022-12-04T17:44:59.007Z,102233.16
2022-12-04T17:47:27.171Z,102237.66
2022-12-04T17:49:55.812Z,102234.28
2022-12-04T17:52:23.819Z,102225.81
2022-12-04T17:54:58.273Z,102240.84
2022-12-04T17:57:26.502Z,102244.41
2022-12-04T17:59:56.060Z,102243.63
2022-12-04T18:02:24.146Z,102234.91
2022-12-04T18:04:57.909Z,102245.41
2022-12-04T18:07:26.107Z,102239.31
2022-12-04T18:10:00.466Z,102258.75
2022-12-04T18:12:28.850Z,102257.81
2022-12-04T18:14:58.358Z,102253.47
2022-12-04T18:17:26.418Z,102258.81
2022-12-04T18:19:56.922Z,102251.03
2022-12-04T18:22:28.660Z,102252.63
2022-12-04T18:24:56.846Z,102255.25
2022-12-04T18:27:25.350Z,102263.75
2022-12-04T18:29:53.436Z,102261.19
2022-12-04T18:32:22.923Z,102263.91
2022-12-04T18:34:50.910Z,102263.06
2022-12-04T18:37:18.881Z,102259.50
2022-12-04T18:39:46.989Z,102259.50
2022-12-04T18:42:16.390Z,102260.19
2022-12-04T18:44:44.440Z,102254.25
2022-12-04T18:47:12.478Z,102256.09
2022-12-04T18:49:42.002Z,102254.50
2022-12-04T18:52:10.065Z,102257.03
2022-12-04T18:54:44.266Z,102252.06
2022-12-04T18:57:12.209Z,102257.31
2022-12-04T18:59:40.492Z,102256.47
2022-12-04T19:02:08.887Z,102245.34
2022-12-04T19:04:37.141Z,102254.53
2022-12-04T19:07:06.731Z,102239.31
2022-12-04T19:10:09.318Z,102250.84
2022-12-04T19:12:22.817Z,102259.97
2022-12-04T19:14:51.351Z,102259.03
2022-12-04T19:17:20.140Z,102257.09
2022-12-04T19:19:48.315Z,102258.00
2022-12-04T19:22:17.825Z,102258.25
2022-12-04T19:24:45.796Z,102258.34
2022-12-04T19:27:14.141Z,102258.41
2022-12-04T19:29:44.431Z,102253.25
2022-12-04T19:32:12.937Z,102255.22
2022-12-04T19:34:41.816Z,102254.28
2022-12-04T19:37:09.885Z,102251.53
2022-12-04T19:39:39.760Z,102255.88
2022-12-04T19:42:09.775Z,102264.63
2022-12-04T19:44:58.213Z,102258.41
2022-12-04T19:47:26.573Z,102258.50
2022-12-04T19:49:54.992Z,102275.03
2022-12-04T19:52:23.250Z,102259.09
2022-12-04T19:54:53.914Z,102259.19
2022-12-04T19:57:21.852Z,102248.34
2022-12-04T19:59:51.289Z,102255.47
2022-12-04T20:02:19.758Z,102255.72
2022-12-04T20:04:47.855Z,102267.25
2022-12-04T20:07:15.880Z,102234.75
2022-12-04T20:09:52.026Z,102261.13
2022-12-04T20:12:21.909Z,102253.31
2022-12-04T20:14:50.033Z,102254.44
2022-12-04T20:17:18.028Z,102259.53
2022-12-04T20:19:45.985Z,102256.91
2022-12-04T20:22:13.982Z,102241.31
2022-12-04T20:24:44.702Z,102253.75
2022-12-04T20:27:12.666Z,102257.25
2022-12-04T20:29:43.090Z,102252.84
2022-12-04T20:32:11.266Z,102247.75
2022-12-04T20:34:43.483Z,102252.06
2022-12-04T20:37:11.993Z,102246.91
2022-12-04T20:39:40.315Z,102245.03
2022-12-04T20:42:09.520Z,102254.63
2022-12-04T20:44:37.503Z,102254.63
2022-12-04T20:47:07.206Z,102249.34
2022-12-04T20:49:35.294Z,102244.19
2022-12-04T20:52:03.436Z,102249.53
2022-12-04T20:54:33.410Z,102241.78
2022-12-04T20:57:05.894Z,102243.56
2022-12-04T20:59:34.053Z,102235.69
2022-12-04T21:02:02.051Z,102239.94
2022-12-04T21:04:31.414Z,102240.78
2022-12-04T21:06:59.822Z,102236.47
2022-12-04T21:09:29.115Z,102240.03
2022-12-04T21:11:57.529Z,102233.06
2022-12-04T21:14:45.283Z,102249.59
2022-12-04T21:17:16.770Z,102238.31
2022-12-04T21:19:47.162Z,102238.16
2022-12-04T21:22:16.095Z,102231.28
2022-12-04T21:24:44.485Z,102234.84
2022-12-04T21:27:17.409Z,102239.09
2022-12-04T21:29:49.588Z,102227.81
2022-12-04T21:32:18.740Z,102234.19
2022-12-04T21:34:48.043Z,102236.72
2022-12-04T21:37:16.261Z,102234.09
2022-12-04T21:39:44.494Z,102240.03
2022-12-04T21:42:32.183Z,102225.78
2022-12-04T21:45:01.073Z,102228.31
2022-12-04T21:47:30.930Z,102234.44
2022-12-04T21:50:00.990Z,102232.75
2022-12-04T21:52:29.758Z,102228.31
2022-12-04T21:54:58.731Z,102229.78
2022-12-04T21:57:29.306Z,102232.28
2022-12-04T21:59:57.580Z,102230.50
2022-12-04T22:02:25.909Z,102238.50
2022-12-04T22:04:53.859Z,102228.72
2022-12-04T22:07:23.299Z,102226.19
2022-12-04T22:09:51.267Z,102228.72
2022-12-04T22:12:47.853Z,102235.59
2022-12-04T22:15:08.423Z,102236.63
2022-12-04T22:17:36.402Z,102215.94
2022-12-04T22:20:04.452Z,102233.66
2022-12-04T22:22:35.140Z,102230.03
2022-12-04T22:25:03.105Z,102226.56
2022-12-04T22:27:31.180Z,102211.72
2022-12-04T22:29:59.477Z,102226.56
2022-12-04T22:32:27.532Z,102228.16
2022-12-04T22:34:55.574Z,102221.13
2022-12-04T22:37:24.678Z,102220.38
2022-12-04T22:39:56.225Z,102220.38
2022-12-04T22:42:24.500Z,102225.63
2022-12-04T22:44:52.417Z,102226.78
2022-12-04T22:47:20.357Z,102213.66
2022-12-04T22:49:48.313Z,102222.47
2022-12-04T22:52:16.415Z,102218.81
2022-12-04T22:54:44.679Z,102207.38
2022-12-04T22:57:14.213Z,102213.56
2022-12-04T22:59:42.232Z,102222.38
2022-12-04T23:02:10.304Z,102209.06
2022-12-04T23:04:38.318Z,102217.81
2022-12-04T23:07:07.063Z,102203.97
2022-12-04T23:09:36.551Z,102207.47
2022-12-04T23:12:04.929Z,102213.56
2022-12-04T23:14:36.936Z,102211.78
2022-12-04T23:17:05.222Z,102202.13
2022-12-04T23:19:33.957Z,102214.41
2022-12-04T23:22:02.021Z,102204.84
2022-12-04T23:24:29.941Z,102210.94
2022-12-04T23:26:57.948Z,102214.41
2022-12-04T23:32:16.462Z,102210.84
2022-12-04T23:34:44.550Z,102199.50
2022-12-04T23:37:12.617Z,102195.78
2022-12-04T23:39:41.123Z,102199.25
2022-12-04T23:42:09.088Z,102197.47
2022-12-04T23:44:37.044Z,102197.19
2022-12-04T23:47:05.518Z,102197.19
2022-12-04T23:49:35.582Z,102198.72
2022-12-04T23:52:03.647Z,102195.91
2022-12-04T23:54:37.719Z,102195.75
2022-12-04T23:57:05.793Z,102193.00
2022-12-04T23:59:33.870Z,102190.38
